createdAt,value
2019-03-24T00:01:41.329Z,78.43
2019-03-24T00:04:10.669Z,78.61
2019-03-24T00:06:40.493Z,78.87
2019-03-24T00:09:10.374Z,78.84
2019-03-24T00:11:40.177Z,78.95
2019-03-24T00:14:10.014Z,78.94
2019-03-24T00:16:39.865Z,79.22
2019-03-24T00:19:09.666Z,79.58
2019-03-24T00:21:39.553Z,80.03
2019-03-24T00:24:09.446Z,80.05
2019-03-24T00:26:39.250Z,80.19
2019-03-24T00:29:09.033Z,80.40
2019-03-24T00:31:38.919Z,80.33
2019-03-24T00:34:08.743Z,80.61
2019-03-24T00:36:38.545Z,80.66
2019-03-24T00:39:08.637Z,80.79
2019-03-24T00:41:38.463Z,80.94
2019-03-24T00:44:08.560Z,80.97
2019-03-24T00:46:38.402Z,81.23
2019-03-24T00:49:08.212Z,81.12
2019-03-24T00:51:38.243Z,81.40
2019-03-24T00:54:08.124Z,81.69
2019-03-24T00:56:37.965Z,81.89
2019-03-24T00:59:07.799Z,81.85
2019-03-24T01:01:37.648Z,82.26
2019-03-24T01:04:07.502Z,82.44
2019-03-24T01:06:37.612Z,82.16
2019-03-24T01:09:08.742Z,82.35
2019-03-24T01:11:38.608Z,82.31
2019-03-24T01:14:08.512Z,82.41
2019-03-24T01:16:38.361Z,82.45
2019-03-24T01:19:08.235Z,82.44
2019-03-24T01:21:38.260Z,82.36
2019-03-24T01:24:08.104Z,82.62
2019-03-24T01:26:37.918Z,82.57
2019-03-24T01:29:07.751Z,82.42
2019-03-24T01:31:37.640Z,82.55
2019-03-24T01:34:07.580Z,82.50
2019-03-24T01:36:37.437Z,82.74
2019-03-24T01:39:08.106Z,83.01
2019-03-24T01:41:37.941Z,82.94
2019-03-24T01:44:07.756Z,82.71
2019-03-24T01:46:37.712Z,82.59
2019-03-24T01:49:07.699Z,83.04
2019-03-24T01:51:37.536Z,82.94
2019-03-24T01:54:07.395Z,82.87
2019-03-24T01:56:37.242Z,82.93
2019-03-24T01:59:07.081Z,83.17
2019-03-24T02:01:36.910Z,83.09
2019-03-24T02:04:06.725Z,82.87
2019-03-24T02:06:38.584Z,83.34
2019-03-24T02:09:09.314Z,83.66
2019-03-24T02:11:39.208Z,83.35
2019-03-24T02:14:09.015Z,83.19
2019-03-24T02:16:38.873Z,83.36
2019-03-24T02:19:08.714Z,83.89
2019-03-24T02:21:38.599Z,83.97
2019-03-24T02:24:08.509Z,83.93
2019-03-24T02:26:38.342Z,84.00
2019-03-24T02:29:08.186Z,84.01
2019-03-24T02:31:38.235Z,84.19
2019-03-24T02:34:08.050Z,84.60
2019-03-24T02:36:37.916Z,84.67
2019-03-24T02:39:08.550Z,84.58
2019-03-24T02:41:38.414Z,84.40
2019-03-24T02:44:08.240Z,84.15
2019-03-24T02:46:38.223Z,84.24
2019-03-24T02:49:08.076Z,84.58
2019-03-24T02:51:37.915Z,84.95
2019-03-24T02:54:08.035Z,84.90
2019-03-24T02:56:37.821Z,85.26
2019-03-24T02:59:07.639Z,85.07
2019-03-24T03:01:37.537Z,85.34
2019-03-24T03:04:07.411Z,84.95
2019-03-24T03:06:37.186Z,84.70
2019-03-24T03:09:07.960Z,85.11
2019-03-24T03:11:37.789Z,85.24
2019-03-24T03:14:07.611Z,85.43
2019-03-24T03:16:38.591Z,85.37
2019-03-24T03:19:08.887Z,85.42
2019-03-24T03:21:38.679Z,85.79
2019-03-24T03:24:08.536Z,85.90
2019-03-24T03:26:38.875Z,85.87
2019-03-24T03:29:08.702Z,86.21
2019-03-24T03:31:38.600Z,86.28
2019-03-24T03:34:08.421Z,86.25
2019-03-24T03:36:38.238Z,86.27
2019-03-24T03:39:08.629Z,86.19
2019-03-24T03:41:38.470Z,86.62
2019-03-24T03:44:08.352Z,86.47
2019-03-24T03:46:51.507Z,86.43
2019-03-24T03:49:10.163Z,86.37
2019-03-24T03:51:40.064Z,86.33
2019-03-24T03:54:09.915Z,86.57
2019-03-24T03:56:39.778Z,86.69
2019-03-24T03:59:09.598Z,86.83
2019-03-24T04:01:39.590Z,86.62
2019-03-24T04:04:09.418Z,86.40
2019-03-24T04:06:39.289Z,86.53
2019-03-24T04:09:09.166Z,86.42
2019-03-24T04:11:38.983Z,86.68
2019-03-24T04:14:08.781Z,86.97
2019-03-24T04:16:38.703Z,86.82
2019-03-24T04:19:08.537Z,86.86
2019-03-24T04:21:38.349Z,86.30
2019-03-24T04:24:08.277Z,86.49
2019-03-24T04:26:38.074Z,86.55
2019-03-24T04:29:07.960Z,86.40
2019-03-24T04:31:37.852Z,86.30
2019-03-24T04:34:07.680Z,86.58
2019-03-24T04:36:37.461Z,86.52
2019-03-24T04:39:07.654Z,86.34
2019-03-24T04:41:37.499Z,86.27
2019-03-24T04:44:07.312Z,86.42
2019-03-24T04:46:37.133Z,86.44
2019-03-24T04:49:06.992Z,86.25
2019-03-24T04:51:37.061Z,86.13
2019-03-24T04:54:06.945Z,85.94
2019-03-24T04:56:36.781Z,85.98
2019-03-24T04:59:06.596Z,86.02
2019-03-24T05:01:36.420Z,86.25
2019-03-24T05:04:06.251Z,86.12
2019-03-24T05:06:36.419Z,86.21
2019-03-24T05:09:06.512Z,86.39
2019-03-24T05:11:36.308Z,86.15
2019-03-24T05:14:06.159Z,86.23
2019-03-24T05:16:36.052Z,86.46
2019-03-24T05:19:05.869Z,86.72
2019-03-24T05:21:35.709Z,86.84
2019-03-24T05:24:05.615Z,86.82
2019-03-24T05:26:35.421Z,86.79
2019-03-24T05:29:05.248Z,86.49
2019-03-24T05:31:35.146Z,86.53
2019-03-24T05:34:04.973Z,86.61
2019-03-24T05:36:34.811Z,86.33
2019-03-24T05:39:06.467Z,86.29
2019-03-24T05:41:36.268Z,86.12
2019-03-24T05:44:06.187Z,86.00
2019-03-24T05:46:36.062Z,85.68
2019-03-24T05:49:05.911Z,85.26
2019-03-24T05:51:35.720Z,84.21
2019-03-24T05:54:05.889Z,84.07
2019-03-24T05:56:35.747Z,84.11
2019-03-24T05:59:05.575Z,83.81
2019-03-24T06:01:35.435Z,83.50
2019-03-24T06:04:05.273Z,83.82
2019-03-24T06:06:35.133Z,83.75
2019-03-24T06:09:06.155Z,83.17
2019-03-24T06:11:35.954Z,83.35
2019-03-24T06:14:05.920Z,82.93
2019-03-24T06:16:37.910Z,81.68
2019-03-24T06:19:07.289Z,81.46
2019-03-24T06:21:37.162Z,80.51
2019-03-24T06:24:07.283Z,80.06
2019-03-24T06:26:37.118Z,79.90
2019-03-24T06:29:06.932Z,79.46
2019-03-24T06:31:36.812Z,79.36
2019-03-24T06:34:06.627Z,79.15
2019-03-24T06:36:36.477Z,78.37
2019-03-24T06:39:07.864Z,78.38
2019-03-24T06:41:37.642Z,78.17
2019-03-24T06:44:07.490Z,77.37
2019-03-24T06:46:37.394Z,78.17
2019-03-24T06:49:07.227Z,78.17
2019-03-24T06:51:37.061Z,76.73
2019-03-24T06:54:07.068Z,77.52
2019-03-24T06:56:36.845Z,77.64
2019-03-24T06:59:06.669Z,77.19
2019-03-24T07:01:36.555Z,76.87
2019-03-24T07:04:06.377Z,77.76
2019-03-24T07:06:36.165Z,77.02
2019-03-24T07:09:07.122Z,76.83
2019-03-24T07:11:36.992Z,76.68
2019-03-24T07:14:06.826Z,77.00
2019-03-24T07:16:36.682Z,77.25
2019-03-24T07:19:06.594Z,77.14
2019-03-24T07:21:36.403Z,75.96
2019-03-24T07:24:06.349Z,76.84
2019-03-24T07:26:36.199Z,74.65
2019-03-24T07:29:06.153Z,75.41
2019-03-24T07:31:36.093Z,74.46
2019-03-24T07:34:05.923Z,73.93
2019-03-24T07:36:35.861Z,73.68
2019-03-24T07:39:06.967Z,73.50
2019-03-24T07:41:36.750Z,72.89
2019-03-24T07:44:06.563Z,72.99
2019-03-24T07:46:36.454Z,72.65
2019-03-24T07:49:06.260Z,72.88
2019-03-24T07:51:36.110Z,72.46
2019-03-24T07:54:05.977Z,72.40
2019-03-24T07:56:35.772Z,71.23
2019-03-24T07:59:05.591Z,71.19
2019-03-24T08:01:35.496Z,71.34
2019-03-24T08:04:06.052Z,71.49
2019-03-24T08:06:35.948Z,71.27
2019-03-24T08:09:06.901Z,70.32
2019-03-24T08:11:37.018Z,70.24
2019-03-24T08:14:06.831Z,69.75
2019-03-24T08:16:36.796Z,70.23
2019-03-24T08:19:06.606Z,70.18
2019-03-24T08:21:36.405Z,70.83
2019-03-24T08:24:06.271Z,69.59
2019-03-24T08:26:36.125Z,68.64
2019-03-24T08:29:06.578Z,68.88
2019-03-24T08:31:36.374Z,69.29
2019-03-24T08:34:06.198Z,68.75
2019-03-24T08:36:36.004Z,70.33
2019-03-24T08:39:07.237Z,68.55
2019-03-24T08:41:38.794Z,69.01
2019-03-24T08:44:08.679Z,68.49
2019-03-24T08:46:38.542Z,68.40
2019-03-24T08:49:08.434Z,68.84
2019-03-24T08:51:38.304Z,67.20
2019-03-24T08:54:08.199Z,66.87
2019-03-24T08:56:38.044Z,67.60
2019-03-24T08:59:07.873Z,67.84
2019-03-24T09:01:37.728Z,66.85
2019-03-24T09:04:07.592Z,67.08
2019-03-24T09:06:37.469Z,66.25
2019-03-24T09:09:08.381Z,65.71
2019-03-24T09:11:38.269Z,65.61
2019-03-24T09:14:08.078Z,64.88
2019-03-24T09:16:37.890Z,65.27
2019-03-24T09:19:07.722Z,65.73
2019-03-24T09:21:37.570Z,65.46
2019-03-24T09:24:07.404Z,63.94
2019-03-24T09:26:37.228Z,64.67
2019-03-24T09:29:07.084Z,63.13
2019-03-24T09:31:36.932Z,61.94
2019-03-24T09:34:06.803Z,62.42
2019-03-24T09:36:36.678Z,63.62
2019-03-24T09:39:07.859Z,62.58
2019-03-24T09:41:37.635Z,63.40
2019-03-24T09:44:07.469Z,62.14
2019-03-24T09:46:37.391Z,60.66
2019-03-24T09:49:07.206Z,61.34
2019-03-24T09:51:37.019Z,60.96
2019-03-24T09:54:06.968Z,61.14
2019-03-24T09:56:36.783Z,60.38
2019-03-24T09:59:06.580Z,60.50
2019-03-24T10:01:36.587Z,59.35
2019-03-24T10:04:06.444Z,59.30
2019-03-24T10:06:36.280Z,58.37
2019-03-24T10:09:06.855Z,59.04
2019-03-24T10:11:36.737Z,58.09
2019-03-24T10:14:06.663Z,59.69
2019-03-24T10:16:36.495Z,58.47
2019-03-24T10:19:13.888Z,58.26
2019-03-24T10:21:37.883Z,58.70
2019-03-24T10:24:08.035Z,59.92
2019-03-24T10:26:37.863Z,58.61
2019-03-24T10:29:07.713Z,58.53
2019-03-24T10:31:37.573Z,59.35
2019-03-24T10:34:07.385Z,58.90
2019-03-24T10:36:37.298Z,57.20
2019-03-24T10:39:07.570Z,58.10
2019-03-24T10:41:37.402Z,57.84
2019-03-24T10:44:07.225Z,57.88
2019-03-24T10:46:37.135Z,57.67
2019-03-24T10:49:06.998Z,58.61
2019-03-24T10:51:36.840Z,57.49
2019-03-24T10:54:06.748Z,56.11
2019-03-24T10:56:36.537Z,57.44
2019-03-24T10:59:06.390Z,58.20
2019-03-24T11:01:36.282Z,57.75
2019-03-24T11:04:06.202Z,56.86
2019-03-24T11:06:35.996Z,55.75
2019-03-24T11:09:06.813Z,55.93
2019-03-24T11:11:36.693Z,54.98
2019-03-24T11:14:06.530Z,55.39
2019-03-24T11:16:36.462Z,54.46
2019-03-24T11:19:06.282Z,50.98
2019-03-24T11:21:36.129Z,47.60
2019-03-24T11:24:05.993Z,45.88
2019-03-24T11:26:35.791Z,47.97
2019-03-24T11:29:05.609Z,47.73
2019-03-24T11:31:35.503Z,49.61
2019-03-24T11:34:05.348Z,50.45
2019-03-24T11:36:35.194Z,50.78
2019-03-24T11:39:06.257Z,51.03
2019-03-24T11:41:36.037Z,51.17
2019-03-24T11:44:06.076Z,52.96
2019-03-24T11:46:35.952Z,51.97
2019-03-24T11:49:05.005Z,53.60
2019-03-24T11:51:34.854Z,54.53
2019-03-24T11:54:04.740Z,54.54
2019-03-24T11:56:34.571Z,54.94
2019-03-24T11:59:04.393Z,52.81
2019-03-24T12:01:38.204Z,53.53
2019-03-24T12:04:05.843Z,52.29
2019-03-24T12:06:35.679Z,51.82
2019-03-24T12:09:07.322Z,52.62
2019-03-24T12:11:37.163Z,54.76
2019-03-24T12:14:07.042Z,54.67
2019-03-24T12:16:37.289Z,54.37
2019-03-24T12:19:07.081Z,56.14
2019-03-24T12:21:36.934Z,56.76
2019-03-24T12:24:06.845Z,53.61
2019-03-24T12:26:36.663Z,55.63
2019-03-24T12:29:06.440Z,54.79
2019-03-24T12:31:36.335Z,54.33
2019-03-24T12:34:06.168Z,53.67
2019-03-24T12:36:36.025Z,52.77
2019-03-24T12:39:07.080Z,54.25
2019-03-24T12:41:36.932Z,51.78
2019-03-24T12:44:06.795Z,53.50
2019-03-24T12:46:36.699Z,51.68
2019-03-24T12:49:06.532Z,52.21
2019-03-24T12:51:36.358Z,53.38
2019-03-24T12:54:06.337Z,54.99
2019-03-24T12:56:36.162Z,53.16
2019-03-24T12:59:06.007Z,53.37
2019-03-24T13:01:35.894Z,52.96
2019-03-24T13:04:05.719Z,53.16
2019-03-24T13:06:35.564Z,52.63
2019-03-24T13:09:07.152Z,52.51
2019-03-24T13:11:36.982Z,51.02
2019-03-24T13:14:06.787Z,52.04
2019-03-24T13:16:36.681Z,52.19
2019-03-24T13:19:06.721Z,51.88
2019-03-24T13:21:36.523Z,52.38
2019-03-24T13:24:06.380Z,52.08
2019-03-24T13:26:36.232Z,53.70
2019-03-24T13:29:06.055Z,53.03
2019-03-24T13:31:35.903Z,52.78
2019-03-24T13:34:05.857Z,52.68
2019-03-24T13:36:35.702Z,51.73
2019-03-24T13:39:07.710Z,52.20
2019-03-24T13:41:37.570Z,53.35
2019-03-24T13:44:07.404Z,53.55
2019-03-24T13:46:37.253Z,51.21
2019-03-24T13:49:07.094Z,52.30
2019-03-24T13:51:36.961Z,51.71
2019-03-24T13:54:06.857Z,50.72
2019-03-24T13:56:36.698Z,51.99
2019-03-24T13:59:06.744Z,52.02
2019-03-24T14:01:36.642Z,52.96
2019-03-24T14:04:06.488Z,52.36
2019-03-24T14:06:36.283Z,52.63
2019-03-24T14:09:09.370Z,49.36
2019-03-24T14:11:39.191Z,50.20
2019-03-24T14:14:09.048Z,47.79
2019-03-24T14:16:38.970Z,49.08
2019-03-24T14:19:08.981Z,47.88
2019-03-24T14:21:38.809Z,47.21
2019-03-24T14:24:08.719Z,48.91
2019-03-24T14:26:38.586Z,49.79
2019-03-24T14:29:08.430Z,47.81
2019-03-24T14:31:38.431Z,47.50
2019-03-24T14:34:08.265Z,48.20
2019-03-24T14:36:38.113Z,47.89
2019-03-24T14:39:08.467Z,46.97
2019-03-24T14:41:38.352Z,47.30
2019-03-24T14:44:08.175Z,46.81
2019-03-24T14:46:38.084Z,44.51
2019-03-24T14:49:07.980Z,45.08
2019-03-24T14:51:37.794Z,45.00
2019-03-24T14:54:07.733Z,45.76
2019-03-24T14:56:37.619Z,46.16
2019-03-24T14:59:07.413Z,45.35
2019-03-24T15:01:37.295Z,46.55
2019-03-24T15:04:07.144Z,46.81
2019-03-24T15:06:37.012Z,47.50
2019-03-24T15:09:07.917Z,47.77
2019-03-24T15:11:37.726Z,46.35
2019-03-24T15:14:07.624Z,48.31
2019-03-24T15:16:37.563Z,47.37
2019-03-24T15:19:07.439Z,50.02
2019-03-24T15:21:37.329Z,49.99
2019-03-24T15:24:07.186Z,51.59
2019-03-24T15:26:37.047Z,51.78
2019-03-24T15:29:06.934Z,52.89
2019-03-24T15:31:36.825Z,52.78
2019-03-24T15:34:06.654Z,54.86
2019-03-24T15:36:36.490Z,55.99
2019-03-24T15:39:09.251Z,55.94
2019-03-24T15:41:39.132Z,57.11
2019-03-24T15:44:08.963Z,56.54
2019-03-24T15:46:38.829Z,56.45
2019-03-24T15:49:08.699Z,57.18
2019-03-24T15:51:38.562Z,56.14
2019-03-24T15:54:08.493Z,57.61
2019-03-24T15:56:38.539Z,57.02
2019-03-24T15:59:08.445Z,58.42
2019-03-24T16:01:38.321Z,59.31
2019-03-24T16:04:08.159Z,59.92
2019-03-24T16:06:38.097Z,59.51
2019-03-24T16:09:08.783Z,60.70
2019-03-24T16:11:38.827Z,59.97
2019-03-24T16:14:08.676Z,59.69
2019-03-24T16:16:38.779Z,59.95
2019-03-24T16:19:08.579Z,60.76
2019-03-24T16:21:38.615Z,60.39
2019-03-24T16:24:08.490Z,59.38
2019-03-24T16:26:38.484Z,60.62
2019-03-24T16:29:08.366Z,60.37
2019-03-24T16:31:38.253Z,60.68
2019-03-24T16:34:08.092Z,60.50
2019-03-24T16:36:37.924Z,61.43
2019-03-24T16:39:08.153Z,60.86
2019-03-24T16:41:38.288Z,62.36
2019-03-24T16:44:08.125Z,62.32
2019-03-24T16:46:37.998Z,63.14
2019-03-24T16:49:07.834Z,63.11
2019-03-24T16:51:39.069Z,63.43
2019-03-24T16:54:09.261Z,63.96
2019-03-24T16:56:39.526Z,64.92
2019-03-24T16:59:09.376Z,65.20
2019-03-24T17:01:39.253Z,66.15
2019-03-24T17:04:09.071Z,66.32
2019-03-24T17:06:38.921Z,66.19
2019-03-24T17:09:09.026Z,66.20
2019-03-24T17:11:39.019Z,66.49
2019-03-24T17:14:08.846Z,67.43
2019-03-24T17:16:38.690Z,66.35
2019-03-24T17:19:08.509Z,66.07
2019-03-24T17:21:49.301Z,66.62
2019-03-24T17:24:09.948Z,66.44
2019-03-24T17:26:39.746Z,66.98
2019-03-24T17:29:09.584Z,67.75
2019-03-24T17:31:39.433Z,68.76
2019-03-24T17:34:09.266Z,68.39
2019-03-24T17:36:39.171Z,69.70
2019-03-24T17:39:09.235Z,70.19
2019-03-24T17:41:39.053Z,70.45
2019-03-24T17:44:08.885Z,70.93
2019-03-24T17:46:38.750Z,71.39
2019-03-24T17:49:08.562Z,71.40
2019-03-24T17:51:38.363Z,71.04
2019-03-24T17:54:08.251Z,70.81
2019-03-24T17:56:38.226Z,70.46
2019-03-24T17:59:08.011Z,70.93
2019-03-24T18:01:37.945Z,70.41
2019-03-24T18:04:07.876Z,70.67
2019-03-24T18:06:37.680Z,70.57
2019-03-24T18:09:09.092Z,70.56
2019-03-24T18:11:38.937Z,71.01
2019-03-24T18:14:08.969Z,71.26
2019-03-24T18:16:38.788Z,71.12
2019-03-24T18:19:08.619Z,71.19
2019-03-24T18:21:38.488Z,71.74
2019-03-24T18:24:08.328Z,71.30
2019-03-24T18:26:38.109Z,71.75
2019-03-24T18:29:07.928Z,72.07
2019-03-24T18:31:37.785Z,72.56
2019-03-24T18:34:07.622Z,72.47
2019-03-24T18:36:37.472Z,71.99
2019-03-24T18:39:09.879Z,72.53
2019-03-24T18:41:39.708Z,71.40
2019-03-24T18:44:09.546Z,70.69
2019-03-24T18:46:39.443Z,71.31
2019-03-24T18:49:09.304Z,70.26
2019-03-24T18:51:39.125Z,70.05
2019-03-24T18:54:09.009Z,70.39
2019-03-24T18:56:38.810Z,70.74
2019-03-24T18:59:08.695Z,71.21
2019-03-24T19:01:38.605Z,71.88
2019-03-24T19:04:08.452Z,71.71
2019-03-24T19:06:38.240Z,72.27
2019-03-24T19:09:09.732Z,72.49
2019-03-24T19:11:39.571Z,72.87
2019-03-24T19:14:09.385Z,73.07
2019-03-24T19:16:39.265Z,73.26
2019-03-24T19:19:09.094Z,73.78
2019-03-24T19:21:38.942Z,73.95
2019-03-24T19:24:08.806Z,74.10
2019-03-24T19:26:38.655Z,74.68
2019-03-24T19:29:08.566Z,74.86
2019-03-24T19:31:38.376Z,74.99
2019-03-24T19:34:08.224Z,75.48
2019-03-24T19:36:38.272Z,75.76
2019-03-24T19:39:09.871Z,76.29
2019-03-24T19:41:39.768Z,76.13
2019-03-24T19:44:09.608Z,75.96
2019-03-24T19:46:39.519Z,75.99
2019-03-24T19:49:09.315Z,76.57
2019-03-24T19:51:39.131Z,77.02
2019-03-24T19:54:09.005Z,77.22
2019-03-24T19:56:38.874Z,77.27
2019-03-24T19:59:08.744Z,77.24
2019-03-24T20:01:38.646Z,77.49
2019-03-24T20:04:08.478Z,78.43
2019-03-24T20:06:38.331Z,78.08
2019-03-24T20:09:09.623Z,78.48
2019-03-24T20:11:39.536Z,78.57
2019-03-24T20:14:09.370Z,78.31
2019-03-24T20:16:39.192Z,78.33
2019-03-24T20:19:09.247Z,77.92
2019-03-24T20:21:39.119Z,77.91
2019-03-24T20:24:08.983Z,77.66
2019-03-24T20:26:38.781Z,77.92
2019-03-24T20:29:08.604Z,78.18
2019-03-24T20:31:38.513Z,77.82
2019-03-24T20:34:08.321Z,78.63
2019-03-24T20:36:38.145Z,78.63
2019-03-24T20:39:09.768Z,79.08
2019-03-24T20:41:39.586Z,79.35
2019-03-24T20:44:11.374Z,79.52
2019-03-24T20:46:41.007Z,80.02
2019-03-24T20:49:10.820Z,80.18
2019-03-24T20:51:40.660Z,80.61
2019-03-24T20:54:10.521Z,80.78
2019-03-24T20:56:40.371Z,80.64
2019-03-24T20:59:10.216Z,80.37
2019-03-24T21:01:40.210Z,80.75
2019-03-24T21:04:10.021Z,80.97
2019-03-24T21:06:39.935Z,80.50
2019-03-24T21:09:10.141Z,80.26
2019-03-24T21:11:39.964Z,80.47
2019-03-24T21:14:09.818Z,80.51
2019-03-24T21:16:39.670Z,80.86
2019-03-24T21:19:09.508Z,81.17
2019-03-24T21:21:39.537Z,80.96
2019-03-24T21:24:09.434Z,80.76
2019-03-24T21:26:39.306Z,80.53
2019-03-24T21:29:09.133Z,80.51
2019-03-24T21:31:38.998Z,80.85
2019-03-24T21:34:08.825Z,80.93
2019-03-24T21:36:38.686Z,80.89
2019-03-24T21:39:08.979Z,81.39
2019-03-24T21:41:38.910Z,81.73
2019-03-24T21:44:08.745Z,82.26
2019-03-24T21:46:38.627Z,82.54
2019-03-24T21:49:08.469Z,82.51
2019-03-24T21:51:38.320Z,82.63
2019-03-24T21:54:08.177Z,82.62
2019-03-24T21:56:38.030Z,82.80
2019-03-24T21:59:07.861Z,83.01
2019-03-24T22:01:37.713Z,83.61
2019-03-24T22:04:07.628Z,84.13
2019-03-24T22:06:37.486Z,84.22
2019-03-24T22:09:08.877Z,84.75
2019-03-24T22:11:38.704Z,84.71
2019-03-24T22:14:08.523Z,84.52
2019-03-24T22:16:38.409Z,84.68
2019-03-24T22:19:08.253Z,84.74
2019-03-24T22:21:38.107Z,84.65
2019-03-24T22:24:08.082Z,84.61
2019-03-24T22:26:37.913Z,85.10
2019-03-24T22:29:07.748Z,85.43
2019-03-24T22:31:37.624Z,85.81
2019-03-24T22:34:07.441Z,86.00
2019-03-24T22:36:37.305Z,85.85
2019-03-24T22:39:08.315Z,86.35
2019-03-24T22:41:38.148Z,86.72
2019-03-24T22:44:07.983Z,86.39
2019-03-24T22:46:37.879Z,87.11
2019-03-24T22:49:07.688Z,87.43
2019-03-24T22:51:37.531Z,87.29
2019-03-24T22:54:07.345Z,87.42
2019-03-24T22:56:37.141Z,87.42
2019-03-24T22:59:07.111Z,87.88
2019-03-24T23:01:37.010Z,87.68
2019-03-24T23:04:06.815Z,88.00
2019-03-24T23:06:36.664Z,87.78
2019-03-24T23:09:09.412Z,87.34
2019-03-24T23:11:39.360Z,87.37
2019-03-24T23:14:09.176Z,87.12
2019-03-24T23:16:39.035Z,87.57
2019-03-24T23:19:08.876Z,87.44
2019-03-24T23:21:38.722Z,87.45
2019-03-24T23:24:15.227Z,87.50
2019-03-24T23:26:40.090Z,87.05
2019-03-24T23:29:09.928Z,87.41
2019-03-24T23:31:39.790Z,86.83
2019-03-24T23:34:09.633Z,86.72
2019-03-24T23:36:39.486Z,86.60
2019-03-24T23:39:10.340Z,86.55
2019-03-24T23:41:40.195Z,86.71
2019-03-24T23:44:10.094Z,86.86
2019-03-24T23:46:39.973Z,86.71
2019-03-24T23:49:09.749Z,87.04
2019-03-24T23:51:39.541Z,86.41
2019-03-24T23:54:09.401Z,86.10
2019-03-24T23:56:39.218Z,86.15
2019-03-24T23:59:09.079Z,86.35
